sensor_id;sensor_type;location;lat;lon;timestamp;P1;durP1;ratioP1;P2;durP2;ratioP2
14100;SDS011;7127;49.372;8.166;2023-03-04T00:02:01;15.53;;;10.37;;
14100;SDS011;7127;49.372;8.166;2023-03-04T00:04:29;14.10;;;10.23;;
14100;SDS011;7127;49.372;8.166;2023-03-04T00:06:58;12.47;;;9.30;;
14100;SDS011;7127;49.372;8.166;2023-03-04T00:09:25;11.70;;;9.30;;
14100;SDS011;7127;49.372;8.166;2023-03-04T00:11:52;13.87;;;9.63;;
14100;SDS011;7127;49.372;8.166;2023-03-04T00:14:19;12.80;;;9.63;;
14100;SDS011;7127;49.372;8.166;2023-03-04T00:16:46;12.80;;;9.00;;
14100;SDS011;7127;49.372;8.166;2023-03-04T00:19:14;15.50;;;10.67;;
14100;SDS011;7127;49.372;8.166;2023-03-04T00:21:41;16.03;;;10.57;;
14100;SDS011;7127;49.372;8.166;2023-03-04T00:24:08;15.23;;;11.20;;
14100;SDS011;7127;49.372;8.166;2023-03-04T00:26:35;13.80;;;10.20;;
14100;SDS011;7127;49.372;8.166;2023-03-04T00:29:02;14.83;;;10.03;;
14100;SDS011;7127;49.372;8.166;2023-03-04T00:31:28;13.67;;;9.20;;
14100;SDS011;7127;49.372;8.166;2023-03-04T00:33:55;13.03;;;9.17;;
14100;SDS011;7127;49.372;8.166;2023-03-04T00:36:23;13.77;;;9.87;;
14100;SDS011;7127;49.372;8.166;2023-03-04T00:38:50;13.63;;;10.10;;
14100;SDS011;7127;49.372;8.166;2023-03-04T00:41:18;14.53;;;9.77;;
14100;SDS011;7127;49.372;8.166;2023-03-04T00:43:44;12.80;;;9.33;;
14100;SDS011;7127;49.372;8.166;2023-03-04T00:46:11;14.70;;;9.90;;
14100;SDS011;7127;49.372;8.166;2023-03-04T00:48:38;13.20;;;9.30;;
14100;SDS011;7127;49.372;8.166;2023-03-04T00:51:05;13.27;;;9.03;;
14100;SDS011;7127;49.372;8.166;2023-03-04T00:53:33;13.10;;;8.83;;
14100;SDS011;7127;49.372;8.166;2023-03-04T00:56:00;12.93;;;9.10;;
14100;SDS011;7127;49.372;8.166;2023-03-04T00:58:27;12.80;;;8.40;;
14100;SDS011;7127;49.372;8.166;2023-03-04T01:00:54;11.77;;;8.57;;
14100;SDS011;7127;49.372;8.166;2023-03-04T01:03:20;13.27;;;9.10;;
14100;SDS011;7127;49.372;8.166;2023-03-04T01:05:48;16.87;;;10.63;;
14100;SDS011;7127;49.372;8.166;2023-03-04T01:08:15;14.57;;;9.87;;
14100;SDS011;7127;49.372;8.166;2023-03-04T01:10:43;13.90;;;9.43;;
14100;SDS011;7127;49.372;8.166;2023-03-04T01:13:10;14.93;;;9.63;;
14100;SDS011;7127;49.372;8.166;2023-03-04T01:15:37;15.00;;;9.60;;
14100;SDS011;7127;49.372;8.166;2023-03-04T01:18:03;14.10;;;9.67;;
14100;SDS011;7127;49.372;8.166;2023-03-04T01:20:30;14.10;;;9.17;;
14100;SDS011;7127;49.372;8.166;2023-03-04T01:22:57;15.17;;;9.90;;
14100;SDS011;7127;49.372;8.166;2023-03-04T01:25:24;13.67;;;9.30;;
14100;SDS011;7127;49.372;8.166;2023-03-04T01:27:52;13.70;;;8.80;;
14100;SDS011;7127;49.372;8.166;2023-03-04T01:30:19;14.43;;;9.63;;
14100;SDS011;7127;49.372;8.166;2023-03-04T01:32:46;11.67;;;8.60;;
14100;SDS011;7127;49.372;8.166;2023-03-04T01:35:12;12.67;;;8.87;;
14100;SDS011;7127;49.372;8.166;2023-03-04T01:37:39;13.37;;;9.50;;
14100;SDS011;7127;49.372;8.166;2023-03-04T01:40:07;14.33;;;8.70;;
14100;SDS011;7127;49.372;8.166;2023-03-04T01:42:34;13.87;;;9.23;;
14100;SDS011;7127;49.372;8.166;2023-03-04T01:45:03;12.33;;;8.77;;
14100;SDS011;7127;49.372;8.166;2023-03-04T01:47:32;11.73;;;7.87;;
14100;SDS011;7127;49.372;8.166;2023-03-04T01:50:00;11.03;;;7.13;;
14100;SDS011;7127;49.372;8.166;2023-03-04T01:52:30;9.63;;;6.97;;
14100;SDS011;7127;49.372;8.166;2023-03-04T01:54:57;10.40;;;6.67;;
14100;SDS011;7127;49.372;8.166;2023-03-04T01:57:24;10.43;;;7.60;;
14100;SDS011;7127;49.372;8.166;2023-03-04T02:00:13;11.60;;;7.63;;
14100;SDS011;7127;49.372;8.166;2023-03-04T02:02:48;10.63;;;7.30;;
14100;SDS011;7127;49.372;8.166;2023-03-04T02:05:17;9.77;;;6.80;;
14100;SDS011;7127;49.372;8.166;2023-03-04T02:07:45;9.47;;;6.27;;
14100;SDS011;7127;49.372;8.166;2023-03-04T02:10:12;11.77;;;7.23;;
14100;SDS011;7127;49.372;8.166;2023-03-04T02:12:39;11.97;;;8.17;;
14100;SDS011;7127;49.372;8.166;2023-03-04T02:15:07;10.80;;;7.23;;
14100;SDS011;7127;49.372;8.166;2023-03-04T02:17:35;12.70;;;7.93;;
14100;SDS011;7127;49.372;8.166;2023-03-04T02:20:05;13.27;;;8.93;;
14100;SDS011;7127;49.372;8.166;2023-03-04T02:22:40;14.50;;;9.40;;
14100;SDS011;7127;49.372;8.166;2023-03-04T02:25:20;17.90;;;11.23;;
14100;SDS011;7127;49.372;8.166;2023-03-04T02:27:50;16.03;;;10.37;;
14100;SDS011;7127;49.372;8.166;2023-03-04T02:30:19;16.50;;;10.10;;
14100;SDS011;7127;49.372;8.166;2023-03-04T02:32:49;17.20;;;10.93;;
14100;SDS011;7127;49.372;8.166;2023-03-04T02:35:17;18.13;;;12.10;;
14100;SDS011;7127;49.372;8.166;2023-03-04T02:37:44;18.37;;;11.80;;
14100;SDS011;7127;49.372;8.166;2023-03-04T02:40:13;16.43;;;10.57;;
14100;SDS011;7127;49.372;8.166;2023-03-04T02:42:42;17.27;;;10.97;;
14100;SDS011;7127;49.372;8.166;2023-03-04T02:47:59;16.37;;;10.67;;
14100;SDS011;7127;49.372;8.166;2023-03-04T02:50:26;16.70;;;10.60;;
14100;SDS011;7127;49.372;8.166;2023-03-04T02:52:55;14.60;;;10.77;;
14100;SDS011;7127;49.372;8.166;2023-03-04T02:55:22;18.53;;;11.43;;
14100;SDS011;7127;49.372;8.166;2023-03-04T02:57:49;16.70;;;10.80;;
14100;SDS011;7127;49.372;8.166;2023-03-04T03:00:16;23.87;;;13.30;;
14100;SDS011;7127;49.372;8.166;2023-03-04T03:02:44;19.97;;;13.07;;
14100;SDS011;7127;49.372;8.166;2023-03-04T03:05:11;19.93;;;12.57;;
14100;SDS011;7127;49.372;8.166;2023-03-04T03:07:38;20.53;;;11.63;;
14100;SDS011;7127;49.372;8.166;2023-03-04T03:10:05;18.43;;;10.90;;
14100;SDS011;7127;49.372;8.166;2023-03-04T03:12:32;18.10;;;11.20;;
14100;SDS011;7127;49.372;8.166;2023-03-04T03:14:59;16.80;;;10.93;;
14100;SDS011;7127;49.372;8.166;2023-03-04T03:17:26;20.60;;;11.60;;
14100;SDS011;7127;49.372;8.166;2023-03-04T03:19:54;16.93;;;10.87;;
14100;SDS011;7127;49.372;8.166;2023-03-04T03:22:21;15.30;;;9.97;;
14100;SDS011;7127;49.372;8.166;2023-03-04T03:24:49;13.47;;;9.23;;
14100;SDS011;7127;49.372;8.166;2023-03-04T03:27:16;14.43;;;9.00;;
14100;SDS011;7127;49.372;8.166;2023-03-04T03:29:42;15.10;;;9.73;;
14100;SDS011;7127;49.372;8.166;2023-03-04T03:32:09;12.80;;;8.73;;
14100;SDS011;7127;49.372;8.166;2023-03-04T03:34:36;14.07;;;9.03;;
14100;SDS011;7127;49.372;8.166;2023-03-04T03:37:04;13.63;;;9.07;;
14100;SDS011;7127;49.372;8.166;2023-03-04T03:39:31;14.87;;;9.07;;
14100;SDS011;7127;49.372;8.166;2023-03-04T03:41:58;13.03;;;8.73;;
14100;SDS011;7127;49.372;8.166;2023-03-04T03:44:25;13.70;;;9.60;;
14100;SDS011;7127;49.372;8.166;2023-03-04T03:46:52;14.50;;;9.17;;
14100;SDS011;7127;49.372;8.166;2023-03-04T03:49:19;14.70;;;10.00;;
14100;SDS011;7127;49.372;8.166;2023-03-04T03:51:45;13.13;;;8.80;;
14100;SDS011;7127;49.372;8.166;2023-03-04T03:54:13;13.83;;;8.87;;
14100;SDS011;7127;49.372;8.166;2023-03-04T03:56:40;12.63;;;8.40;;
14100;SDS011;7127;49.372;8.166;2023-03-04T03:59:07;12.47;;;8.43;;
14100;SDS011;7127;49.372;8.166;2023-03-04T04:01:34;12.53;;;8.40;;
14100;SDS011;7127;49.372;8.166;2023-03-04T04:04:01;12.03;;;8.20;;
14100;SDS011;7127;49.372;8.166;2023-03-04T04:06:28;11.30;;;8.30;;
14100;SDS011;7127;49.372;8.166;2023-03-04T04:08:55;12.57;;;8.70;;
14100;SDS011;7127;49.372;8.166;2023-03-04T04:11:23;11.10;;;7.70;;
14100;SDS011;7127;49.372;8.166;2023-03-04T04:13:50;13.13;;;9.23;;
14100;SDS011;7127;49.372;8.166;2023-03-04T04:16:17;12.17;;;8.43;;
14100;SDS011;7127;49.372;8.166;2023-03-04T04:18:43;11.47;;;8.40;;
14100;SDS011;7127;49.372;8.166;2023-03-04T04:21:10;13.40;;;8.87;;
14100;SDS011;7127;49.372;8.166;2023-03-04T04:23:37;12.73;;;9.07;;
14100;SDS011;7127;49.372;8.166;2023-03-04T04:26:04;14.07;;;10.23;;
14100;SDS011;7127;49.372;8.166;2023-03-04T04:28:32;13.23;;;8.50;;
14100;SDS011;7127;49.372;8.166;2023-03-04T04:30:59;12.90;;;8.50;;
14100;SDS011;7127;49.372;8.166;2023-03-04T04:33:26;11.93;;;8.87;;
14100;SDS011;7127;49.372;8.166;2023-03-04T04:35:52;12.27;;;8.53;;
14100;SDS011;7127;49.372;8.166;2023-03-04T04:38:20;11.80;;;8.93;;
14100;SDS011;7127;49.372;8.166;2023-03-04T04:40:48;14.03;;;7.93;;
14100;SDS011;7127;49.372;8.166;2023-03-04T04:43:15;12.37;;;9.03;;
14100;SDS011;7127;49.372;8.166;2023-03-04T04:45:43;15.30;;;10.70;;
14100;SDS011;7127;49.372;8.166;2023-03-04T04:48:10;15.20;;;10.13;;
14100;SDS011;7127;49.372;8.166;2023-03-04T04:50:37;13.07;;;10.00;;
14100;SDS011;7127;49.372;8.166;2023-03-04T04:53:03;15.43;;;10.27;;
14100;SDS011;7127;49.372;8.166;2023-03-04T04:55:30;14.77;;;10.70;;
14100;SDS011;7127;49.372;8.166;2023-03-04T04:57:58;13.90;;;10.20;;
14100;SDS011;7127;49.372;8.166;2023-03-04T05:00:25;14.50;;;9.97;;
14100;SDS011;7127;49.372;8.166;2023-03-04T05:02:53;13.53;;;9.73;;
14100;SDS011;7127;49.372;8.166;2023-03-04T05:05:20;14.10;;;9.43;;
14100;SDS011;7127;49.372;8.166;2023-03-04T05:07:47;14.50;;;9.97;;
14100;SDS011;7127;49.372;8.166;2023-03-04T05:10:14;15.10;;;11.17;;
14100;SDS011;7127;49.372;8.166;2023-03-04T05:12:42;15.00;;;10.53;;
14100;SDS011;7127;49.372;8.166;2023-03-04T05:15:10;14.43;;;10.50;;
14100;SDS011;7127;49.372;8.166;2023-03-04T05:17:37;16.30;;;10.73;;
14100;SDS011;7127;49.372;8.166;2023-03-04T05:20:05;14.50;;;10.10;;
14100;SDS011;7127;49.372;8.166;2023-03-04T05:22:33;14.93;;;10.33;;
14100;SDS011;7127;49.372;8.166;2023-03-04T05:25:00;15.80;;;10.73;;
14100;SDS011;7127;49.372;8.166;2023-03-04T05:27:27;13.07;;;8.97;;
14100;SDS011;7127;49.372;8.166;2023-03-04T05:29:54;16.80;;;12.50;;
14100;SDS011;7127;49.372;8.166;2023-03-04T05:32:24;14.77;;;10.77;;
14100;SDS011;7127;49.372;8.166;2023-03-04T05:34:51;13.80;;;9.80;;
14100;SDS011;7127;49.372;8.166;2023-03-04T05:37:19;12.03;;;9.07;;
14100;SDS011;7127;49.372;8.166;2023-03-04T05:39:46;13.83;;;10.13;;
14100;SDS011;7127;49.372;8.166;2023-03-04T05:42:13;16.63;;;11.30;;
14100;SDS011;7127;49.372;8.166;2023-03-04T05:44:40;17.37;;;11.50;;
14100;SDS011;7127;49.372;8.166;2023-03-04T05:47:07;13.33;;;10.13;;
14100;SDS011;7127;49.372;8.166;2023-03-04T05:49:33;13.50;;;10.10;;
14100;SDS011;7127;49.372;8.166;2023-03-04T05:52:00;13.80;;;10.03;;
14100;SDS011;7127;49.372;8.166;2023-03-04T05:54:28;14.10;;;10.33;;
14100;SDS011;7127;49.372;8.166;2023-03-04T05:56:55;14.67;;;11.07;;
14100;SDS011;7127;49.372;8.166;2023-03-04T05:59:22;13.77;;;10.80;;
14100;SDS011;7127;49.372;8.166;2023-03-04T06:01:49;15.07;;;11.17;;
14100;SDS011;7127;49.372;8.166;2023-03-04T06:04:16;16.10;;;12.33;;
14100;SDS011;7127;49.372;8.166;2023-03-04T06:06:43;15.40;;;11.73;;
14100;SDS011;7127;49.372;8.166;2023-03-04T06:09:11;13.80;;;11.20;;
14100;SDS011;7127;49.372;8.166;2023-03-04T06:11:40;16.57;;;11.33;;
14100;SDS011;7127;49.372;8.166;2023-03-04T06:14:06;18.17;;;12.67;;
14100;SDS011;7127;49.372;8.166;2023-03-04T06:16:33;17.27;;;12.73;;
14100;SDS011;7127;49.372;8.166;2023-03-04T06:19:00;17.83;;;12.57;;
14100;SDS011;7127;49.372;8.166;2023-03-04T06:21:27;16.70;;;12.67;;
14100;SDS011;7127;49.372;8.166;2023-03-04T06:23:54;16.73;;;12.30;;
14100;SDS011;7127;49.372;8.166;2023-03-04T06:26:20;19.60;;;13.30;;
14100;SDS011;7127;49.372;8.166;2023-03-04T06:28:49;16.67;;;12.53;;
14100;SDS011;7127;49.372;8.166;2023-03-04T06:31:15;16.87;;;12.70;;
14100;SDS011;7127;49.372;8.166;2023-03-04T06:33:42;15.83;;;11.53;;
14100;SDS011;7127;49.372;8.166;2023-03-04T06:36:10;17.37;;;12.17;;
14100;SDS011;7127;49.372;8.166;2023-03-04T06:38:37;18.90;;;12.80;;
14100;SDS011;7127;49.372;8.166;2023-03-04T06:41:07;17.77;;;13.00;;
14100;SDS011;7127;49.372;8.166;2023-03-04T06:43:34;17.63;;;12.63;;
14100;SDS011;7127;49.372;8.166;2023-03-04T06:46:03;17.27;;;12.47;;
14100;SDS011;7127;49.372;8.166;2023-03-04T06:48:31;18.67;;;13.10;;
14100;SDS011;7127;49.372;8.166;2023-03-04T06:50:57;15.47;;;11.97;;
14100;SDS011;7127;49.372;8.166;2023-03-04T06:53:29;15.90;;;11.60;;
14100;SDS011;7127;49.372;8.166;2023-03-04T06:55:56;17.77;;;13.37;;
14100;SDS011;7127;49.372;8.166;2023-03-04T06:58:23;17.70;;;13.23;;
14100;SDS011;7127;49.372;8.166;2023-03-04T07:00:49;20.87;;;14.47;;
14100;SDS011;7127;49.372;8.166;2023-03-04T07:03:18;19.10;;;13.97;;
14100;SDS011;7127;49.372;8.166;2023-03-04T07:05:45;20.50;;;14.53;;
14100;SDS011;7127;49.372;8.166;2023-03-04T07:08:12;21.93;;;16.07;;
14100;SDS011;7127;49.372;8.166;2023-03-04T07:10:38;21.30;;;15.03;;
14100;SDS011;7127;49.372;8.166;2023-03-04T07:13:05;21.67;;;16.07;;
14100;SDS011;7127;49.372;8.166;2023-03-04T07:15:32;21.23;;;14.77;;
14100;SDS011;7127;49.372;8.166;2023-03-04T07:18:00;24.13;;;17.47;;
14100;SDS011;7127;49.372;8.166;2023-03-04T07:20:29;20.80;;;15.37;;
14100;SDS011;7127;49.372;8.166;2023-03-04T07:22:55;23.93;;;17.70;;
14100;SDS011;7127;49.372;8.166;2023-03-04T07:25:22;23.90;;;17.57;;
14100;SDS011;7127;49.372;8.166;2023-03-04T07:27:49;23.13;;;17.20;;
14100;SDS011;7127;49.372;8.166;2023-03-04T07:30:16;25.80;;;18.73;;
14100;SDS011;7127;49.372;8.166;2023-03-04T07:32:43;30.80;;;21.40;;
14100;SDS011;7127;49.372;8.166;2023-03-04T07:35:10;22.80;;;17.53;;
14100;SDS011;7127;49.372;8.166;2023-03-04T07:37:38;22.10;;;16.57;;
14100;SDS011;7127;49.372;8.166;2023-03-04T07:40:05;23.73;;;17.10;;
14100;SDS011;7127;49.372;8.166;2023-03-04T07:42:33;22.43;;;15.30;;
14100;SDS011;7127;49.372;8.166;2023-03-04T07:45:01;21.10;;;16.10;;
14100;SDS011;7127;49.372;8.166;2023-03-04T07:47:28;20.27;;;15.43;;
14100;SDS011;7127;49.372;8.166;2023-03-04T07:49:54;21.80;;;15.83;;
14100;SDS011;7127;49.372;8.166;2023-03-04T07:52:21;18.00;;;13.27;;
14100;SDS011;7127;49.372;8.166;2023-03-04T07:54:50;21.63;;;15.67;;
14100;SDS011;7127;49.372;8.166;2023-03-04T07:57:16;22.50;;;16.40;;
14100;SDS011;7127;49.372;8.166;2023-03-04T07:59:43;19.80;;;14.80;;
14100;SDS011;7127;49.372;8.166;2023-03-04T08:02:10;21.47;;;16.63;;
14100;SDS011;7127;49.372;8.166;2023-03-04T08:04:40;24.13;;;15.37;;
14100;SDS011;7127;49.372;8.166;2023-03-04T08:07:07;18.47;;;13.63;;
14100;SDS011;7127;49.372;8.166;2023-03-04T08:09:34;18.57;;;13.27;;
14100;SDS011;7127;49.372;8.166;2023-03-04T08:12:02;21.63;;;15.30;;
14100;SDS011;7127;49.372;8.166;2023-03-04T08:14:29;18.17;;;13.70;;
14100;SDS011;7127;49.372;8.166;2023-03-04T08:16:55;17.90;;;13.17;;
14100;SDS011;7127;49.372;8.166;2023-03-04T08:19:22;16.53;;;11.33;;
14100;SDS011;7127;49.372;8.166;2023-03-04T08:21:49;16.73;;;12.60;;
14100;SDS011;7127;49.372;8.166;2023-03-04T08:24:16;18.57;;;11.80;;
14100;SDS011;7127;49.372;8.166;2023-03-04T08:26:44;14.43;;;11.33;;
14100;SDS011;7127;49.372;8.166;2023-03-04T08:29:14;17.43;;;12.53;;
14100;SDS011;7127;49.372;8.166;2023-03-04T08:31:43;16.97;;;11.40;;
14100;SDS011;7127;49.372;8.166;2023-03-04T08:34:10;16.43;;;12.03;;
14100;SDS011;7127;49.372;8.166;2023-03-04T08:36:38;15.70;;;11.50;;
14100;SDS011;7127;49.372;8.166;2023-03-04T08:39:06;13.43;;;10.07;;
14100;SDS011;7127;49.372;8.166;2023-03-04T08:41:34;15.60;;;11.27;;
14100;SDS011;7127;49.372;8.166;2023-03-04T08:44:01;16.97;;;12.03;;
14100;SDS011;7127;49.372;8.166;2023-03-04T08:46:29;15.60;;;11.00;;
14100;SDS011;7127;49.372;8.166;2023-03-04T08:48:56;18.67;;;12.63;;
14100;SDS011;7127;49.372;8.166;2023-03-04T08:51:23;14.57;;;10.17;;
14100;SDS011;7127;49.372;8.166;2023-03-04T08:53:50;17.77;;;11.87;;
14100;SDS011;7127;49.372;8.166;2023-03-04T08:56:17;14.13;;;10.30;;
14100;SDS011;7127;49.372;8.166;2023-03-04T08:58:44;14.93;;;9.67;;
14100;SDS011;7127;49.372;8.166;2023-03-04T09:01:11;14.73;;;9.50;;
14100;SDS011;7127;49.372;8.166;2023-03-04T09:03:41;13.93;;;10.00;;
14100;SDS011;7127;49.372;8.166;2023-03-04T09:06:08;15.33;;;11.30;;
14100;SDS011;7127;49.372;8.166;2023-03-04T09:08:37;13.97;;;8.90;;
14100;SDS011;7127;49.372;8.166;2023-03-04T09:11:04;11.83;;;8.50;;
14100;SDS011;7127;49.372;8.166;2023-03-04T09:13:31;10.87;;;8.23;;
14100;SDS011;7127;49.372;8.166;2023-03-04T09:15:58;12.97;;;9.27;;
14100;SDS011;7127;49.372;8.166;2023-03-04T09:18:25;15.33;;;10.17;;
14100;SDS011;7127;49.372;8.166;2023-03-04T09:20:54;13.17;;;8.87;;
14100;SDS011;7127;49.372;8.166;2023-03-04T09:23:21;15.10;;;10.87;;
14100;SDS011;7127;49.372;8.166;2023-03-04T09:25:48;15.17;;;10.10;;
14100;SDS011;7127;49.372;8.166;2023-03-04T09:28:15;15.73;;;10.17;;
14100;SDS011;7127;49.372;8.166;2023-03-04T09:30:43;11.83;;;8.77;;
14100;SDS011;7127;49.372;8.166;2023-03-04T09:33:10;15.23;;;11.27;;
14100;SDS011;7127;49.372;8.166;2023-03-04T09:35:39;13.10;;;9.63;;
14100;SDS011;7127;49.372;8.166;2023-03-04T09:38:07;12.73;;;8.87;;
14100;SDS011;7127;49.372;8.166;2023-03-04T09:40:36;14.33;;;9.80;;
14100;SDS011;7127;49.372;8.166;2023-03-04T09:43:05;11.00;;;8.50;;
14100;SDS011;7127;49.372;8.166;2023-03-04T09:45:38;13.40;;;8.53;;
14100;SDS011;7127;49.372;8.166;2023-03-04T09:48:09;10.67;;;7.97;;
14100;SDS011;7127;49.372;8.166;2023-03-04T09:50:42;11.00;;;7.43;;
14100;SDS011;7127;49.372;8.166;2023-03-04T09:53:20;13.97;;;9.83;;
14100;SDS011;7127;49.372;8.166;2023-03-04T09:55:50;15.13;;;9.73;;
14100;SDS011;7127;49.372;8.166;2023-03-04T09:58:25;14.73;;;10.03;;
14100;SDS011;7127;49.372;8.166;2023-03-04T10:01:02;12.10;;;8.77;;
14100;SDS011;7127;49.372;8.166;2023-03-04T10:03:36;11.77;;;8.10;;
14100;SDS011;7127;49.372;8.166;2023-03-04T10:06:08;13.17;;;8.60;;
14100;SDS011;7127;49.372;8.166;2023-03-04T10:08:40;10.13;;;6.83;;
14100;SDS011;7127;49.372;8.166;2023-03-04T10:11:15;11.20;;;7.90;;
14100;SDS011;7127;49.372;8.166;2023-03-04T10:13:56;15.07;;;8.30;;
14100;SDS011;7127;49.372;8.166;2023-03-04T10:16:28;9.87;;;6.57;;
14100;SDS011;7127;49.372;8.166;2023-03-04T10:19:01;10.67;;;7.30;;
14100;SDS011;7127;49.372;8.166;2023-03-04T10:21:45;9.40;;;7.07;;
14100;SDS011;7127;49.372;8.166;2023-03-04T10:24:17;10.70;;;8.00;;
14100;SDS011;7127;49.372;8.166;2023-03-04T10:26:47;14.10;;;8.50;;
14100;SDS011;7127;49.372;8.166;2023-03-04T10:29:18;11.03;;;7.27;;
14100;SDS011;7127;49.372;8.166;2023-03-04T10:31:47;10.37;;;6.90;;
14100;SDS011;7127;49.372;8.166;2023-03-04T10:34:14;13.97;;;8.93;;
14100;SDS011;7127;49.372;8.166;2023-03-04T10:36:46;10.67;;;8.00;;
14100;SDS011;7127;49.372;8.166;2023-03-04T10:39:23;12.00;;;8.10;;
14100;SDS011;7127;49.372;8.166;2023-03-04T10:41:53;11.50;;;6.70;;
14100;SDS011;7127;49.372;8.166;2023-03-04T10:44:22;12.83;;;8.60;;
14100;SDS011;7127;49.372;8.166;2023-03-04T10:46:50;11.37;;;8.10;;
14100;SDS011;7127;49.372;8.166;2023-03-04T10:49:20;11.03;;;6.90;;
14100;SDS011;7127;49.372;8.166;2023-03-04T10:51:50;12.63;;;7.13;;
14100;SDS011;7127;49.372;8.166;2023-03-04T10:54:23;11.03;;;7.10;;
14100;SDS011;7127;49.372;8.166;2023-03-04T10:56:54;10.20;;;7.47;;
14100;SDS011;7127;49.372;8.166;2023-03-04T10:59:30;12.50;;;7.47;;
14100;SDS011;7127;49.372;8.166;2023-03-04T11:02:05;11.50;;;7.83;;
14100;SDS011;7127;49.372;8.166;2023-03-04T11:04:42;9.50;;;6.43;;
14100;SDS011;7127;49.372;8.166;2023-03-04T11:07:14;9.90;;;7.27;;
14100;SDS011;7127;49.372;8.166;2023-03-04T11:09:44;13.03;;;7.57;;
14100;SDS011;7127;49.372;8.166;2023-03-04T11:12:12;10.57;;;6.67;;
14100;SDS011;7127;49.372;8.166;2023-03-04T11:14:40;12.37;;;6.67;;
14100;SDS011;7127;49.372;8.166;2023-03-04T11:17:18;12.37;;;7.50;;
14100;SDS011;7127;49.372;8.166;2023-03-04T11:19:47;9.73;;;6.97;;
14100;SDS011;7127;49.372;8.166;2023-03-04T11:22:17;9.47;;;6.70;;
14100;SDS011;7127;49.372;8.166;2023-03-04T11:24:51;10.93;;;6.07;;
14100;SDS011;7127;49.372;8.166;2023-03-04T11:27:23;9.17;;;6.07;;
14100;SDS011;7127;49.372;8.166;2023-03-04T11:30:19;7.57;;;5.10;;
14100;SDS011;7127;49.372;8.166;2023-03-04T11:32:55;8.80;;;5.90;;
14100;SDS011;7127;49.372;8.166;2023-03-04T11:35:31;9.70;;;5.80;;
14100;SDS011;7127;49.372;8.166;2023-03-04T11:38:04;8.37;;;5.50;;
14100;SDS011;7127;49.372;8.166;2023-03-04T11:40:42;8.07;;;5.60;;
14100;SDS011;7127;49.372;8.166;2023-03-04T11:43:11;7.33;;;5.40;;
14100;SDS011;7127;49.372;8.166;2023-03-04T11:48:41;10.50;;;6.00;;
14100;SDS011;7127;49.372;8.166;2023-03-04T11:51:17;9.37;;;6.40;;
14100;SDS011;7127;49.372;8.166;2023-03-04T11:53:52;7.90;;;5.60;;
14100;SDS011;7127;49.372;8.166;2023-03-04T11:56:30;9.00;;;5.77;;
14100;SDS011;7127;49.372;8.166;2023-03-04T12:02:14;7.73;;;4.97;;
14100;SDS011;7127;49.372;8.166;2023-03-04T12:04:54;6.17;;;4.30;;
14100;SDS011;7127;49.372;8.166;2023-03-04T12:07:49;7.80;;;4.47;;
14100;SDS011;7127;49.372;8.166;2023-03-04T12:10:45;10.00;;;5.77;;
14100;SDS011;7127;49.372;8.166;2023-03-04T12:13:28;8.03;;;5.27;;
14100;SDS011;7127;49.372;8.166;2023-03-04T12:16:06;6.57;;;4.80;;
14100;SDS011;7127;49.372;8.166;2023-03-04T12:18:48;10.03;;;5.60;;
14100;SDS011;7127;49.372;8.166;2023-03-04T12:21:32;6.90;;;5.03;;
14100;SDS011;7127;49.372;8.166;2023-03-04T12:24:28;8.40;;;4.53;;
14100;SDS011;7127;49.372;8.166;2023-03-04T12:27:06;6.87;;;4.90;;
14100;SDS011;7127;49.372;8.166;2023-03-04T12:29:46;7.43;;;4.47;;
14100;SDS011;7127;49.372;8.166;2023-03-04T12:32:21;8.33;;;4.40;;
14100;SDS011;7127;49.372;8.166;2023-03-04T12:35:02;8.60;;;4.87;;
14100;SDS011;7127;49.372;8.166;2023-03-04T12:37:48;7.37;;;4.80;;
14100;SDS011;7127;49.372;8.166;2023-03-04T12:40:27;6.83;;;4.67;;
14100;SDS011;7127;49.372;8.166;2023-03-04T12:43:08;11.90;;;5.50;;
14100;SDS011;7127;49.372;8.166;2023-03-04T12:45:53;6.90;;;4.30;;
14100;SDS011;7127;49.372;8.166;2023-03-04T12:48:29;7.57;;;5.40;;
14100;SDS011;7127;49.372;8.166;2023-03-04T12:53:50;6.23;;;4.33;;
14100;SDS011;7127;49.372;8.166;2023-03-04T12:56:27;8.30;;;5.07;;
14100;SDS011;7127;49.372;8.166;2023-03-04T12:58:58;7.77;;;4.80;;
14100;SDS011;7127;49.372;8.166;2023-03-04T13:01:28;8.07;;;4.50;;
14100;SDS011;7127;49.372;8.166;2023-03-04T13:04:00;9.87;;;5.53;;
14100;SDS011;7127;49.372;8.166;2023-03-04T13:06:33;7.80;;;5.10;;
14100;SDS011;7127;49.372;8.166;2023-03-04T13:09:11;7.47;;;5.03;;
14100;SDS011;7127;49.372;8.166;2023-03-04T13:11:50;10.03;;;6.07;;
14100;SDS011;7127;49.372;8.166;2023-03-04T13:14:25;8.13;;;5.30;;
14100;SDS011;7127;49.372;8.166;2023-03-04T13:16:55;11.57;;;6.73;;
14100;SDS011;7127;49.372;8.166;2023-03-04T13:19:42;9.57;;;5.60;;
14100;SDS011;7127;49.372;8.166;2023-03-04T13:22:28;10.13;;;5.50;;
14100;SDS011;7127;49.372;8.166;2023-03-04T13:25:00;10.87;;;5.53;;
14100;SDS011;7127;49.372;8.166;2023-03-04T13:27:49;10.40;;;6.60;;
14100;SDS011;7127;49.372;8.166;2023-03-04T13:30:40;8.87;;;5.80;;
14100;SDS011;7127;49.372;8.166;2023-03-04T13:33:49;8.10;;;5.60;;
14100;SDS011;7127;49.372;8.166;2023-03-04T13:36:33;9.00;;;5.73;;
14100;SDS011;7127;49.372;8.166;2023-03-04T13:39:28;7.27;;;5.30;;
14100;SDS011;7127;49.372;8.166;2023-03-04T13:41:56;12.00;;;7.10;;
14100;SDS011;7127;49.372;8.166;2023-03-04T13:44:36;8.90;;;5.73;;
14100;SDS011;7127;49.372;8.166;2023-03-04T13:47:25;9.80;;;6.23;;
14100;SDS011;7127;49.372;8.166;2023-03-04T13:50:26;8.60;;;5.53;;
14100;SDS011;7127;49.372;8.166;2023-03-04T13:56:00;7.30;;;5.00;;
14100;SDS011;7127;49.372;8.166;2023-03-04T13:58:35;8.90;;;5.17;;
14100;SDS011;7127;49.372;8.166;2023-03-04T14:01:02;8.53;;;6.47;;
14100;SDS011;7127;49.372;8.166;2023-03-04T14:03:31;11.83;;;7.40;;
14100;SDS011;7127;49.372;8.166;2023-03-04T14:06:14;10.23;;;6.50;;
14100;SDS011;7127;49.372;8.166;2023-03-04T14:08:42;11.23;;;7.57;;
14100;SDS011;7127;49.372;8.166;2023-03-04T14:11:11;9.63;;;6.83;;
14100;SDS011;7127;49.372;8.166;2023-03-04T14:13:39;10.83;;;6.73;;
14100;SDS011;7127;49.372;8.166;2023-03-04T14:16:06;9.97;;;6.00;;
14100;SDS011;7127;49.372;8.166;2023-03-04T14:18:33;9.57;;;6.20;;
14100;SDS011;7127;49.372;8.166;2023-03-04T14:21:01;9.33;;;6.03;;
14100;SDS011;7127;49.372;8.166;2023-03-04T14:23:29;11.93;;;7.53;;
14100;SDS011;7127;49.372;8.166;2023-03-04T14:26:04;10.13;;;6.90;;
14100;SDS011;7127;49.372;8.166;2023-03-04T14:28:32;10.27;;;7.43;;
14100;SDS011;7127;49.372;8.166;2023-03-04T14:31:09;14.07;;;9.07;;
14100;SDS011;7127;49.372;8.166;2023-03-04T14:33:44;15.07;;;9.57;;
14100;SDS011;7127;49.372;8.166;2023-03-04T14:36:16;10.23;;;7.30;;
14100;SDS011;7127;49.372;8.166;2023-03-04T14:38:49;12.03;;;7.70;;
14100;SDS011;7127;49.372;8.166;2023-03-04T14:41:20;12.70;;;8.00;;
14100;SDS011;7127;49.372;8.166;2023-03-04T14:43:53;11.83;;;7.77;;
14100;SDS011;7127;49.372;8.166;2023-03-04T14:46:25;9.73;;;7.40;;
14100;SDS011;7127;49.372;8.166;2023-03-04T14:48:56;11.60;;;8.20;;
14100;SDS011;7127;49.372;8.166;2023-03-04T14:51:32;12.10;;;8.30;;
14100;SDS011;7127;49.372;8.166;2023-03-04T14:56:59;9.97;;;7.30;;
14100;SDS011;7127;49.372;8.166;2023-03-04T14:59:28;11.43;;;6.97;;
14100;SDS011;7127;49.372;8.166;2023-03-04T15:02:15;9.70;;;6.63;;
14100;SDS011;7127;49.372;8.166;2023-03-04T15:04:46;9.17;;;6.60;;
14100;SDS011;7127;49.372;8.166;2023-03-04T15:07:15;11.57;;;6.70;;
14100;SDS011;7127;49.372;8.166;2023-03-04T15:09:51;10.73;;;7.33;;
14100;SDS011;7127;49.372;8.166;2023-03-04T15:12:24;13.17;;;7.70;;
14100;SDS011;7127;49.372;8.166;2023-03-04T15:14:53;10.03;;;7.03;;
14100;SDS011;7127;49.372;8.166;2023-03-04T15:17:24;10.23;;;6.93;;
14100;SDS011;7127;49.372;8.166;2023-03-04T15:19:57;8.17;;;6.07;;
14100;SDS011;7127;49.372;8.166;2023-03-04T15:22:25;9.90;;;5.77;;